Time;durP1;ratioP1;P1;durP2;ratioP2;P2;SDS_P1;SDS_P2;PMS_P1;PMS_P2;Temp;Humidity;BMP_temperature;BMP_pressure;BME280_temperature;BME280_humidity;BME280_pressure;Samples;Min_cycle;Max_cycle;Signal;HPM_P1;HPM_P2
2022/10/04 00:02:27;;;;;;;15.00;13.45;;;8.20;99.90;;;;;;5031666;28;20284;-72
2022/10/04 00:05:02;;;;;;;15.23;13.43;;;8.10;99.90;;;;;;5025075;28;20234;-72
2022/10/04 00:07:31;;;;;;;16.85;14.63;;;8.10;99.90;;;;;;5030823;28;20567;-72
2022/10/04 00:10:02;;;;;;;20.60;14.15;;;8.10;99.90;;;;;;5028834;28;20271;-72
2022/10/04 00:12:33;;;;;;;15.52;13.88;;;8.10;99.90;;;;;;5024383;28;20194;-72
2022/10/04 00:15:02;;;;;;;18.90;15.57;;;8.00;99.90;;;;;;5025979;28;20285;-72
2022/10/04 00:17:34;;;;;;;17.58;15.77;;;8.00;99.90;;;;;;5024161;28;20222;-72
2022/10/04 00:20:02;;;;;;;15.93;14.32;;;8.00;99.90;;;;;;5013531;28;20565;-72
2022/10/04 00:22:30;;;;;;;17.73;14.05;;;8.00;99.90;;;;;;5020315;28;20243;-72
2022/10/04 00:25:18;;;;;;;15.48;13.93;;;8.00;99.90;;;;;;5017222;28;20195;-72
2022/10/04 00:28:28;;;;;;;14.35;12.98;;;8.00;99.90;;;;;;5030391;28;20859;-72
2022/10/04 00:31:16;;;;;;;18.55;12.02;;;7.90;99.90;;;;;;5028678;28;20297;-72
2022/10/04 00:33:45;;;;;;;13.20;11.88;;;7.90;99.90;;;;;;5027090;28;20240;-72
2022/10/04 00:36:36;;;;;;;14.60;13.15;;;7.90;99.90;;;;;;5021102;28;20215;-71
2022/10/04 00:39:14;;;;;;;13.95;12.50;;;7.80;99.90;;;;;;5025882;28;20288;-72
2022/10/04 00:41:53;;;;;;;14.85;12.40;;;7.80;99.90;;;;;;5018053;28;20198;-71
2022/10/04 00:44:30;;;;;;;17.98;15.05;;;7.70;99.90;;;;;;5026596;28;20201;-72
2022/10/04 00:47:00;;;;;;;16.80;14.75;;;7.70;99.90;;;;;;5023053;28;20226;-71
2022/10/04 00:49:34;;;;;;;13.63;12.27;;;7.80;99.90;;;;;;5015556;28;20712;-72
2022/10/04 00:52:06;;;;;;;16.42;13.52;;;7.80;99.90;;;;;;5023876;28;20208;-72
2022/10/04 00:54:40;;;;;;;14.02;12.65;;;7.80;99.90;;;;;;5016787;28;20289;-72
2022/10/04 00:57:11;;;;;;;15.23;13.40;;;7.80;99.90;;;;;;5025741;28;20313;-72
2022/10/04 00:59:41;;;;;;;16.33;14.52;;;7.80;99.90;;;;;;5021655;28;20197;-72
2022/10/04 01:02:17;;;;;;;16.00;14.30;;;7.70;99.90;;;;;;5024914;28;20233;-72
2022/10/04 01:04:51;;;;;;;14.52;13.02;;;7.70;99.90;;;;;;5019712;28;20668;-72
2022/10/04 01:07:22;;;;;;;15.27;12.38;;;7.70;99.90;;;;;;5031936;28;20222;-72
2022/10/04 01:09:53;;;;;;;14.73;13.20;;;7.70;99.90;;;;;;5027729;28;20291;-72
2022/10/04 01:12:36;;;;;;;14.70;12.60;;;7.70;99.90;;;;;;5021154;28;20273;-72
2022/10/04 01:15:07;;;;;;;12.82;11.40;;;7.70;99.90;;;;;;5023103;28;20292;-72
2022/10/04 01:17:34;;;;;;;12.80;11.50;;;7.60;99.90;;;;;;5031806;28;20585;-72
2022/10/04 01:20:23;;;;;;;12.70;11.50;;;7.60;99.90;;;;;;5030972;28;20195;-72
2022/10/04 01:22:51;;;;;;;12.68;11.48;;;7.60;99.90;;;;;;5034125;28;20197;-72
2022/10/04 01:25:43;;;;;;;11.15;9.95;;;7.60;99.90;;;;;;5036490;28;20205;-72
2022/10/04 01:28:10;;;;;;;11.85;10.65;;;7.60;99.90;;;;;;5034939;28;20260;-72
2022/10/04 01:30:37;;;;;;;11.93;10.50;;;7.50;99.90;;;;;;5033235;28;20198;-73
2022/10/04 01:33:05;;;;;;;10.88;9.88;;;7.40;99.90;;;;;;5033253;28;20194;-73
2022/10/04 01:35:34;;;;;;;11.38;10.30;;;7.40;99.90;;;;;;5035067;28;20197;-73
2022/10/04 01:38:05;;;;;;;12.93;10.38;;;7.30;99.90;;;;;;5034859;28;20604;-73
2022/10/04 01:40:33;;;;;;;12.40;10.50;;;7.30;99.90;;;;;;5026847;28;20194;-73
2022/10/04 01:43:04;;;;;;;13.60;12.02;;;7.20;99.90;;;;;;5026851;28;20281;-73
2022/10/04 01:45:36;;;;;;;11.50;10.40;;;7.20;99.90;;;;;;5034951;28;20193;-72
2022/10/04 01:48:08;;;;;;;12.10;10.65;;;7.20;99.90;;;;;;5036051;28;20778;-72
2022/10/04 01:50:40;;;;;;;12.60;11.30;;;7.20;99.90;;;;;;5032273;28;20284;-72
2022/10/04 01:53:15;;;;;;;11.40;10.30;;;7.10;99.90;;;;;;5037255;28;20668;-72
2022/10/04 01:55:47;;;;;;;10.18;9.10;;;7.10;99.90;;;;;;5034942;28;20647;-72
2022/10/04 01:58:18;;;;;;;13.68;9.65;;;7.10;99.90;;;;;;5036392;28;20727;-71
2022/10/04 02:00:50;;;;;;;13.77;10.30;;;7.00;99.90;;;;;;5030648;28;20201;-71
2022/10/04 02:03:21;;;;;;;12.15;10.15;;;7.00;99.90;;;;;;5034240;28;20201;-71
2022/10/04 02:05:53;;;;;;;10.55;9.45;;;6.90;99.90;;;;;;5033200;28;20229;-71
2022/10/04 02:08:27;;;;;;;18.73;10.52;;;7.20;99.90;;;;;;5023394;28;20308;-71
2022/10/04 02:10:55;;;;;;;50.78;11.25;;;6.90;99.90;;;;;;5021691;28;20201;-71
2022/10/04 02:13:26;;;;;;;29.65;10.60;;;6.90;99.90;;;;;;5034669;28;20198;-71
2022/10/04 02:15:55;;;;;;;27.13;10.60;;;6.80;99.90;;;;;;5034193;28;20205;-71
2022/10/04 02:18:23;;;;;;;59.95;10.68;;;6.70;99.90;;;;;;5027642;28;20302;-71
2022/10/04 02:20:52;;;;;;;70.30;11.68;;;6.70;99.90;;;;;;5032985;28;20190;-71
2022/10/04 02:23:20;;;;;;;50.13;10.15;;;6.60;99.90;;;;;;5036235;28;20194;-71
2022/10/04 02:25:48;;;;;;;71.82;11.63;;;6.60;99.90;;;;;;5021963;28;20631;-71
2022/10/04 02:28:17;;;;;;;29.02;8.40;;;6.50;99.90;;;;;;5021193;28;20221;-71
2022/10/04 02:32:56;;;;;;;18.50;7.80;;;6.50;99.90;;;;;;5027317;28;20572;-71
2022/10/04 02:33:38;;;;;;;20.48;8.65;;;6.40;99.90;;;;;;5026504;28;20236;-71
2022/10/04 02:36:07;;;;;;;14.95;8.48;;;6.40;99.90;;;;;;5019742;28;20272;-71
2022/10/04 02:38:37;;;;;;;11.18;8.20;;;6.30;99.90;;;;;;5031348;28;20284;-71
2022/10/04 02:41:12;;;;;;;10.10;9.20;;;6.30;99.90;;;;;;5028410;28;20649;-71
2022/10/04 02:43:46;;;;;;;9.60;8.70;;;6.40;99.90;;;;;;5023562;28;20193;-72
2022/10/04 02:46:17;;;;;;;30.83;9.35;;;6.40;99.90;;;;;;5028671;28;20218;-71
2022/10/04 02:48:47;;;;;;;18.25;9.57;;;6.40;99.90;;;;;;5021515;28;20235;-71
2022/10/04 02:51:25;;;;;;;22.30;9.18;;;6.40;99.90;;;;;;5026783;28;20194;-71
2022/10/04 02:54:05;;;;;;;15.05;8.63;;;6.40;99.90;;;;;;5027400;28;20288;-71
2022/10/04 02:56:36;;;;;;;11.18;9.27;;;6.30;99.90;;;;;;5022282;28;20257;-71
2022/10/04 02:59:05;;;;;;;10.70;9.60;;;6.30;99.90;;;;;;5032487;28;20292;-72
2022/10/04 03:01:50;;;;;;;10.77;9.77;;;6.30;99.90;;;;;;5026137;28;20194;-72
2022/10/04 03:04:21;;;;;;;11.50;10.40;;;6.40;99.90;;;;;;5029116;28;20297;-72
2022/10/04 03:06:48;;;;;;;11.45;10.35;;;6.30;99.90;;;;;;5022136;28;20246;-72
2022/10/04 03:09:16;;;;;;;12.48;11.30;;;6.40;99.90;;;;;;5015256;28;20248;-71
2022/10/04 03:11:46;;;;;;;13.60;12.30;;;6.40;99.90;;;;;;5026444;28;20190;-71
2022/10/04 03:14:17;;;;;;;13.55;12.23;;;6.50;99.90;;;;;;5030208;28;20190;-71
2022/10/04 03:16:47;;;;;;;13.27;12.00;;;6.50;99.90;;;;;;5026623;28;20233;-71
2022/10/04 03:19:17;;;;;;;12.80;11.52;;;6.50;99.90;;;;;;5031969;28;20205;-71
2022/10/04 03:21:47;;;;;;;14.43;12.75;;;6.50;99.90;;;;;;5023588;28;20198;-71
2022/10/04 03:24:20;;;;;;;15.45;13.60;;;6.60;99.90;;;;;;5018447;28;20767;-71
2022/10/04 03:26:52;;;;;;;16.25;12.52;;;6.60;99.90;;;;;;5018637;28;20228;-72
2022/10/04 03:29:23;;;;;;;11.88;10.77;;;6.60;99.90;;;;;;5016370;28;20222;-71
2022/10/04 03:31:56;;;;;;;11.48;10.38;;;6.50;99.90;;;;;;5028980;28;20615;-72
2022/10/04 03:34:26;;;;;;;12.02;10.93;;;6.50;99.90;;;;;;5022064;28;20210;-72
2022/10/04 03:36:57;;;;;;;11.68;10.43;;;6.50;99.90;;;;;;5024123;28;20252;-72
2022/10/04 03:39:29;;;;;;;11.25;10.20;;;6.50;99.90;;;;;;5026698;28;20197;-72
2022/10/04 03:41:58;;;;;;;12.25;11.15;;;6.50;99.90;;;;;;5026225;28;20655;-72
2022/10/04 03:44:25;;;;;;;13.25;12.05;;;6.50;99.90;;;;;;5027051;28;20190;-72
2022/10/04 03:46:52;;;;;;;11.65;10.55;;;6.50;99.90;;;;;;5023296;28;20223;-73
2022/10/04 03:49:31;;;;;;;11.82;10.73;;;6.40;99.90;;;;;;5030825;28;20316;-72
2022/10/04 03:51:59;;;;;;;11.20;10.10;;;6.40;99.90;;;;;;5031041;28;20590;-72
2022/10/04 03:54:28;;;;;;;10.88;9.98;;;6.40;99.90;;;;;;5029530;28;20194;-72
2022/10/04 03:56:58;;;;;;;11.20;10.20;;;6.30;99.90;;;;;;5030090;28;20222;-72
2022/10/04 03:59:27;;;;;;;9.52;8.73;;;6.30;99.90;;;;;;5023543;28;20199;-73
2022/10/04 04:02:04;;;;;;;12.32;11.07;;;6.30;99.90;;;;;;5031599;28;20208;-73
2022/10/04 04:04:42;;;;;;;11.77;10.70;;;6.30;99.90;;;;;;5016766;28;20202;-75
2022/10/04 04:07:14;;;;;;;12.20;11.10;;;6.30;99.90;;;;;;5019902;28;20649;-75
2022/10/04 04:09:45;;;;;;;12.27;11.13;;;6.20;99.90;;;;;;5022561;28;20208;-74
2022/10/04 04:12:19;;;;;;;14.85;12.85;;;6.20;99.90;;;;;;5031090;28;20289;-74
2022/10/04 04:14:50;;;;;;;13.50;12.20;;;6.20;99.90;;;;;;5019381;28;20200;-76
2022/10/04 04:17:38;;;;;;;11.82;10.82;;;6.20;99.90;;;;;;5029422;28;20774;-75
2022/10/04 04:20:12;;;;;;;12.45;11.25;;;6.20;99.90;;;;;;5023663;28;20202;-75
2022/10/04 04:22:42;;;;;;;12.85;11.60;;;6.20;99.90;;;;;;5030502;28;20202;-75
2022/10/04 04:25:15;;;;;;;13.63;12.25;;;6.30;99.90;;;;;;5017721;28;20225;-75
2022/10/04 04:27:47;;;;;;;13.23;11.90;;;6.20;99.90;;;;;;5014244;28;20233;-75
2022/10/04 04:30:17;;;;;;;12.55;11.32;;;6.20;99.90;;;;;;5030099;28;20289;-77
2022/10/04 04:32:49;;;;;;;11.15;10.15;;;6.20;99.90;;;;;;5014404;28;20568;-73
2022/10/04 04:35:25;;;;;;;13.13;10.82;;;6.20;99.90;;;;;;5016140;28;20587;-74
2022/10/04 04:38:19;;;;;;;11.30;10.30;;;6.10;99.90;;;;;;5026489;28;20248;-74
2022/10/04 04:40:46;;;;;;;12.18;10.85;;;6.10;99.90;;;;;;5009778;28;20220;-74
2022/10/04 04:43:19;;;;;;;11.00;9.93;;;6.10;99.90;;;;;;5017120;28;20197;-74
2022/10/04 04:45:48;;;;;;;11.65;10.52;;;6.10;99.90;;;;;;5014283;28;20302;-73
2022/10/04 04:48:18;;;;;;;11.70;10.50;;;6.10;99.90;;;;;;5019806;28;20216;-74
2022/10/04 04:50:51;;;;;;;11.98;10.73;;;6.10;99.90;;;;;;5015732;28;20212;-74
2022/10/04 04:53:22;;;;;;;11.98;10.85;;;6.10;99.90;;;;;;5018097;28;20228;-73
2022/10/04 04:55:52;;;;;;;11.18;10.25;;;6.20;99.90;;;;;;5021272;28;20223;-73
2022/10/04 04:58:24;;;;;;;11.48;10.40;;;6.20;99.90;;;;;;5024716;28;20201;-73
2022/10/04 05:00:57;;;;;;;12.05;10.88;;;6.10;99.90;;;;;;5023192;28;20204;-73
2022/10/04 05:03:24;;;;;;;13.00;10.88;;;6.10;99.90;;;;;;5021552;28;20202;-73
2022/10/04 05:05:53;;;;;;;12.75;11.45;;;6.20;99.90;;;;;;5019043;28;20288;-74
2022/10/04 05:08:24;;;;;;;11.80;10.70;;;6.20;99.90;;;;;;5018377;28;20212;-73
2022/10/04 05:10:58;;;;;;;11.85;10.60;;;6.20;99.90;;;;;;5010387;28;20198;-74
2022/10/04 05:13:32;;;;;;;11.98;10.88;;;6.20;99.90;;;;;;5016662;28;20323;-73
2022/10/04 05:16:00;;;;;;;16.23;11.18;;;6.20;99.90;;;;;;5023554;28;20716;-73
2022/10/04 05:18:30;;;;;;;14.75;13.30;;;6.20;99.90;;;;;;5009459;28;20198;-73
2022/10/04 05:21:03;;;;;;;13.43;12.02;;;6.30;99.90;;;;;;5016152;28;20202;-73
2022/10/04 05:23:31;;;;;;;12.50;11.38;;;6.30;99.90;;;;;;5021293;28;20205;-76
2022/10/04 05:26:01;;;;;;;12.50;11.30;;;6.30;99.90;;;;;;5027981;28;20229;-74
2022/10/04 05:28:29;;;;;;;12.13;11.13;;;6.40;99.90;;;;;;5013697;28;20695;-74
2022/10/04 05:31:08;;;;;;;11.05;9.95;;;6.40;99.90;;;;;;5022971;28;20626;-73
2022/10/04 05:33:45;;;;;;;12.38;10.77;;;6.40;99.90;;;;;;5025011;28;20197;-73
2022/10/04 05:36:51;;;;;;;12.88;11.05;;;6.40;99.90;;;;;;5013166;28;20876;-74
2022/10/04 05:39:29;;;;;;;12.07;10.98;;;6.40;99.90;;;;;;5020240;28;20198;-74
2022/10/04 05:42:06;;;;;;;12.75;11.30;;;6.40;99.90;;;;;;5018069;28;20216;-73
2022/10/04 05:44:45;;;;;;;11.07;10.07;;;6.40;99.90;;;;;;5011174;28;20217;-74
2022/10/04 05:47:14;;;;;;;13.32;10.95;;;6.50;99.90;;;;;;5012604;28;20242;-74
2022/10/04 05:49:43;;;;;;;11.77;10.35;;;6.40;99.90;;;;;;5007671;28;20233;-74
2022/10/04 05:52:16;;;;;;;10.98;9.93;;;6.40;99.90;;;;;;5014848;28;20198;-74
2022/10/04 05:54:44;;;;;;;12.63;11.43;;;6.40;99.90;;;;;;5014099;28;20198;-74
2022/10/04 05:57:28;;;;;;;10.88;9.52;;;6.50;99.90;;;;;;5019500;28;20655;-74
2022/10/04 06:00:19;;;;;;;10.15;9.25;;;6.50;99.90;;;;;;5020128;28;20288;-74
2022/10/04 06:03:17;;;;;;;11.45;10.35;;;6.50;99.90;;;;;;5013772;28;20290;-74
2022/10/04 06:05:49;;;;;;;11.20;10.23;;;6.50;99.90;;;;;;5020932;28;20305;-74
2022/10/04 06:08:32;;;;;;;11.80;10.70;;;6.60;99.90;;;;;;5021729;28;20241;-74
2022/10/04 06:11:08;;;;;;;10.32;9.20;;;6.60;99.90;;;;;;5023644;28;20312;-75
2022/10/04 06:14:04;;;;;;;10.00;9.10;;;6.60;99.90;;;;;;5025869;28;20212;-74
2022/10/04 06:16:47;;;;;;;10.93;9.93;;;6.60;99.90;;;;;;5022515;28;20225;-75
2022/10/04 06:19:36;;;;;;;9.27;8.38;;;6.60;99.90;;;;;;5024924;28;20549;-73
2022/10/04 06:22:16;;;;;;;9.52;8.65;;;6.60;99.90;;;;;;5016214;28;20780;-74
2022/10/04 06:24:46;;;;;;;9.20;8.40;;;6.60;99.90;;;;;;5024684;28;20680;-74
2022/10/04 06:27:19;;;;;;;10.35;9.35;;;6.60;99.90;;;;;;5010888;28;20248;-74
2022/10/04 06:29:50;;;;;;;9.85;8.52;;;6.60;99.90;;;;;;5013963;28;20735;-75
2022/10/04 06:33:01;;;;;;;12.55;9.45;;;6.60;99.90;;;;;;5011136;28;20292;-74
2022/10/04 06:35:57;;;;;;;10.57;9.57;;;6.70;99.90;;;;;;5031046;28;20718;-74
2022/10/04 06:39:03;;;;;;;9.85;8.93;;;6.80;99.90;;;;;;5035040;28;20197;-74
2022/10/04 06:41:50;;;;;;;10.27;9.27;;;6.80;99.90;;;;;;5030665;28;20250;-73
2022/10/04 06:44:40;;;;;;;16.55;11.07;;;6.90;99.90;;;;;;5027695;28;20704;-73
2022/10/04 06:47:24;;;;;;;11.77;10.30;;;7.00;99.90;;;;;;5024785;28;20311;-73
2022/10/04 06:49:57;;;;;;;9.80;8.80;;;7.00;99.90;;;;;;5013547;28;20221;-74
2022/10/04 06:52:41;;;;;;;10.23;9.23;;;7.10;99.90;;;;;;5020138;28;20203;-73
2022/10/04 06:55:39;;;;;;;10.10;9.02;;;7.10;99.90;;;;;;5020528;28;20569;-73
2022/10/04 06:58:50;;;;;;;10.15;9.25;;;7.30;99.90;;;;;;5019460;28;20284;-73
2022/10/04 07:01:26;;;;;;;11.60;9.00;;;7.40;99.90;;;;;;4984245;28;20281;-73
2022/10/04 07:04:01;;;;;;;9.63;8.68;;;7.60;99.90;;;;;;5015784;28;20216;-73
2022/10/04 07:06:36;;;;;;;9.98;8.98;;;7.70;99.90;;;;;;5015766;28;20222;-73
2022/10/04 07:09:07;;;;;;;9.95;7.95;;;7.70;99.90;;;;;;5014169;28;20280;-73
2022/10/04 07:11:43;;;;;;;10.00;9.00;;;7.60;99.90;;;;;;5016576;28;20199;-73
2022/10/04 07:14:15;;;;;;;9.35;8.48;;;7.60;99.90;;;;;;5018212;28;20199;-77
2022/10/04 07:16:47;;;;;;;9.13;8.23;;;7.70;99.90;;;;;;5013088;28;20329;-72
2022/10/04 07:19:29;;;;;;;9.35;8.55;;;7.80;99.90;;;;;;5027860;28;20225;-73
2022/10/04 07:22:04;;;;;;;9.60;8.70;;;7.90;99.90;;;;;;5022197;28;20206;-73
2022/10/04 07:24:46;;;;;;;9.65;8.80;;;7.90;99.90;;;;;;5013707;28;20194;-73
2022/10/04 07:27:17;;;;;;;11.13;10.10;;;8.00;99.90;;;;;;5015031;28;20222;-73
2022/10/04 07:29:45;;;;;;;10.57;9.48;;;8.10;99.90;;;;;;5011807;28;20223;-73
2022/10/04 07:32:18;;;;;;;10.35;9.05;;;8.10;99.90;;;;;;5028785;28;20195;-73
2022/10/04 07:34:50;;;;;;;11.15;9.60;;;8.20;99.90;;;;;;5021029;28;20252;-73
2022/10/04 07:37:20;;;;;;;10.00;9.00;;;8.30;99.90;;;;;;5018557;28;20569;-73
2022/10/04 07:39:53;;;;;;;9.70;8.82;;;8.40;99.90;;;;;;5022091;28;20213;-74
2022/10/04 07:42:26;;;;;;;9.25;8.32;;;8.50;99.90;;;;;;5027031;28;20564;-73
2022/10/04 07:45:10;;;;;;;9.13;8.32;;;8.60;99.90;;;;;;5023754;28;20288;-74
2022/10/04 07:47:37;;;;;;;9.10;8.20;;;8.80;99.90;;;;;;5022394;28;20226;-74
2022/10/04 07:50:21;;;;;;;9.32;8.52;;;9.00;99.90;;;;;;5015981;28;20315;-74
2022/10/04 07:52:57;;;;;;;9.25;8.32;;;9.10;99.90;;;;;;5021275;28;20196;-74
2022/10/04 07:55:30;;;;;;;8.38;7.50;;;9.20;99.90;;;;;;5029801;28;20281;-74
2022/10/04 07:58:09;;;;;;;8.00;7.18;;;9.20;99.90;;;;;;5030932;28;20235;-75
2022/10/04 08:00:44;;;;;;;7.80;7.00;;;9.30;99.90;;;;;;5025241;28;20211;-74
2022/10/04 08:03:27;;;;;;;7.32;6.72;;;9.40;99.90;;;;;;5032230;28;20211;-75
2022/10/04 08:06:08;;;;;;;9.98;7.90;;;9.50;99.90;;;;;;5032263;28;20251;-74
2022/10/04 08:08:52;;;;;;;7.35;6.70;;;9.60;99.90;;;;;;5030099;28;20198;-72
2022/10/04 08:11:29;;;;;;;8.13;6.72;;;9.60;99.90;;;;;;5017325;28;20290;-73
2022/10/04 08:14:02;;;;;;;7.43;6.72;;;9.60;99.90;;;;;;5018925;28;20191;-73
2022/10/04 08:16:35;;;;;;;6.30;5.72;;;9.60;99.90;;;;;;5028802;28;20300;-74
2022/10/04 08:19:23;;;;;;;7.50;6.13;;;9.60;99.90;;;;;;5033453;28;20653;-73
2022/10/04 08:21:59;;;;;;;6.50;5.88;;;9.60;99.90;;;;;;5029641;28;20197;-74
2022/10/04 08:24:34;;;;;;;6.70;6.10;;;9.70;99.90;;;;;;5012110;28;20202;-73
2022/10/04 08:27:25;;;;;;;5.82;5.32;;;9.80;99.90;;;;;;5018509;28;20226;-74
2022/10/04 08:30:03;;;;;;;6.32;5.78;;;9.90;99.90;;;;;;5013119;28;20233;-73
2022/10/04 08:32:43;;;;;;;5.82;5.32;;;10.00;99.90;;;;;;5026245;28;20590;-73
2022/10/04 08:35:29;;;;;;;7.40;5.05;;;10.20;99.90;;;;;;5018197;28;20235;-73
2022/10/04 08:38:20;;;;;;;4.93;4.53;;;10.60;99.90;;;;;;5025094;28;20288;-73
2022/10/04 08:41:39;;;;;;;6.63;5.25;;;11.10;99.90;;;;;;5029406;28;20637;-74
2022/10/04 08:44:34;;;;;;;6.30;4.97;;;11.80;99.90;;;;;;5026506;28;20580;-73
2022/10/04 08:47:43;;;;;;;5.60;5.10;;;11.60;99.90;;;;;;5028427;28;20210;-73
2022/10/04 08:50:42;;;;;;;5.93;5.25;;;11.60;99.90;;;;;;4990715;28;20229;-73
2022/10/04 08:53:45;;;;;;;5.40;5.00;;;11.90;99.90;;;;;;5016119;28;20191;-71
2022/10/04 08:56:26;;;;;;;4.73;4.33;;;12.40;99.90;;;;;;4973230;28;20239;-75
2022/10/04 08:59:21;;;;;;;4.77;3.97;;;13.00;99.90;;;;;;5023359;28;20980;-75
2022/10/04 09:02:09;;;;;;;4.10;3.80;;;13.70;99.90;;;;;;5024902;28;20463;-73
2022/10/04 09:05:05;;;;;;;4.43;4.13;;;14.30;99.90;;;;;;5027846;28;20543;-73
2022/10/04 09:08:08;;;;;;;5.83;4.17;;;14.50;99.90;;;;;;5028137;28;20458;-73
2022/10/04 09:10:51;;;;;;;3.97;3.60;;;14.90;99.90;;;;;;5024501;28;20574;-74
2022/10/04 09:13:35;;;;;;;4.70;3.97;;;14.90;99.90;;;;;;5032371;28;20494;-73
2022/10/04 09:16:16;;;;;;;5.90;4.30;;;15.10;99.90;;;;;;5029320;28;20552;-74
2022/10/04 09:18:52;;;;;;;5.67;4.60;;;15.40;99.90;;;;;;5022161;28;20460;-73
2022/10/04 09:21:33;;;;;;;6.23;5.63;;;15.50;99.90;;;;;;5034251;28;20534;-72
2022/10/04 09:24:49;;;;;;;6.80;4.77;;;15.70;99.90;;;;;;5021783;28;20559;-73
2022/10/04 09:27:33;;;;;;;6.30;4.60;;;15.90;99.90;;;;;;5018633;28;20574;-74
2022/10/04 09:30:15;;;;;;;5.03;4.43;;;15.70;99.90;;;;;;5028437;28;21019;-72
2022/10/04 09:33:14;;;;;;;5.77;4.13;;;15.60;99.90;;;;;;5026706;28;20811;-74
2022/10/04 09:36:22;;;;;;;5.67;5.07;;;15.50;99.90;;;;;;4999664;28;20483;-75
2022/10/04 09:39:22;;;;;;;6.30;4.50;;;15.60;99.90;;;;;;5026468;28;20463;-73
2022/10/04 09:42:12;;;;;;;5.97;4.20;;;15.40;99.90;;;;;;5031875;28;20542;-72
2022/10/04 09:44:57;;;;;;;7.43;4.10;;;15.40;99.90;;;;;;5025467;28;20531;-73
2022/10/04 09:47:42;;;;;;;5.33;4.30;;;15.50;99.90;;;;;;5034347;28;20831;-72
2022/10/04 09:50:46;;;;;;;6.30;4.50;;;15.40;99.90;;;;;;5021478;28;22191;-73
2022/10/04 09:53:29;;;;;;;6.30;4.20;;;15.50;99.90;;;;;;5019454;28;20502;-73
2022/10/04 09:56:14;;;;;;;3.83;3.53;;;15.90;99.90;;;;;;5019305;28;20986;-71
2022/10/04 09:59:20;;;;;;;4.00;3.33;;;16.00;99.90;;;;;;5019539;28;20520;-71
2022/10/04 10:02:27;;;;;;;5.37;4.87;;;16.40;99.90;;;;;;5000385;28;20453;-74
2022/10/04 10:05:15;;;;;;;4.30;3.50;;;16.30;99.90;;;;;;5028736;28;20519;-73
2022/10/04 10:07:51;;;;;;;3.83;3.33;;;16.20;99.90;;;;;;5028836;28;20542;-73
2022/10/04 10:13:41;;;;;;;3.70;3.40;;;17.10;99.90;;;;;;5022691;28;20491;-74
2022/10/04 10:16:24;;;;;;;4.50;3.70;;;17.00;99.90;;;;;;5019407;28;20517;-74
2022/10/04 10:19:05;;;;;;;3.40;2.83;;;17.20;99.90;;;;;;5030370;28;20461;-74
2022/10/04 10:21:54;;;;;;;6.17;3.23;;;17.50;99.90;;;;;;5029781;28;20486;-74
2022/10/04 10:24:55;;;;;;;4.40;3.00;;;17.80;99.90;;;;;;5018442;28;20549;-74
2022/10/04 10:27:49;;;;;;;3.77;2.97;;;17.80;99.90;;;;;;5017859;28;20972;-75
2022/10/04 10:30:22;;;;;;;2.97;2.30;;;17.60;99.90;;;;;;5016014;28;20983;-74
2022/10/04 10:33:10;;;;;;;4.27;2.50;;;17.60;99.90;;;;;;5019645;28;20460;-74
2022/10/04 10:35:55;;;;;;;4.90;2.70;;;18.00;99.90;;;;;;5019243;28;20476;-74
2022/10/04 10:38:39;;;;;;;3.90;2.77;;;18.10;99.90;;;;;;5018132;28;20526;-74
2022/10/04 10:41:41;;;;;;;5.03;2.67;;;17.80;99.90;;;;;;5019199;28;20456;-73
2022/10/04 10:44:37;;;;;;;4.10;3.00;;;17.80;99.90;;;;;;5023110;28;20470;-74
2022/10/04 10:47:21;;;;;;;4.60;2.97;;;17.90;99.90;;;;;;5033116;28;20459;-74
2022/10/04 10:50:02;;;;;;;3.13;2.50;;;18.00;99.90;;;;;;5031162;28;20490;-74
2022/10/04 10:53:08;;;;;;;4.43;2.90;;;18.30;99.90;;;;;;5030239;28;20466;-74
2022/10/04 10:56:13;;;;;;;6.47;3.57;;;18.30;99.90;;;;;;5028626;28;20484;-74
2022/10/04 10:59:27;;;;;;;4.20;2.33;;;18.60;99.90;;;;;;5029218;28;20859;-74
2022/10/04 11:02:42;;;;;;;4.63;2.70;;;19.00;99.90;;;;;;5025202;28;20541;-74
2022/10/04 11:05:29;;;;;;;4.07;3.00;;;19.30;99.90;;;;;;5026391;28;20604;-75
2022/10/04 11:08:04;;;;;;;3.40;2.40;;;19.30;99.90;;;;;;5028666;28;20463;-73
2022/10/04 11:11:02;;;;;;;4.30;2.80;;;19.30;99.90;;;;;;5026323;28;20582;-74
2022/10/04 11:14:01;;;;;;;4.53;2.90;;;19.80;99.90;;;;;;5023271;28;20547;-75
2022/10/04 11:16:46;;;;;;;3.17;2.70;;;20.60;99.90;;;;;;5029069;28;20857;-74
2022/10/04 11:19:50;;;;;;;2.83;2.63;;;20.80;99.90;;;;;;5023832;28;20475;-73
2022/10/04 11:23:01;;;;;;;3.90;2.93;;;20.90;99.90;;;;;;5023725;28;20971;-73
2022/10/04 11:25:57;;;;;;;3.63;2.93;;;21.30;99.90;;;;;;5022501;28;20803;-73
2022/10/04 11:28:35;;;;;;;3.10;2.50;;;21.20;99.90;;;;;;5008107;28;20974;-74
2022/10/04 11:31:39;;;;;;;3.60;2.70;;;21.20;99.90;;;;;;5018058;28;21052;-74
2022/10/04 11:34:40;;;;;;;3.70;2.50;;;21.20;99.90;;;;;;5022101;28;21105;-78
2022/10/04 11:37:17;;;;;;;4.00;2.70;;;21.20;99.90;;;;;;4993298;28;20486;-73
2022/10/04 11:40:01;;;;;;;3.80;3.17;;;21.30;99.90;;;;;;5017490;28;20543;-74
2022/10/04 11:42:43;;;;;;;2.50;2.13;;;20.90;99.90;;;;;;5015098;28;20499;-75
2022/10/04 11:45:38;;;;;;;2.73;2.53;;;21.10;99.90;;;;;;5023982;28;20526;-79
2022/10/04 11:48:22;;;;;;;2.50;2.30;;;21.30;99.90;;;;;;5025622;28;20544;-79
2022/10/04 11:51:26;;;;;;;3.00;2.53;;;21.40;99.90;;;;;;5013729;28;20574;-76
2022/10/04 11:54:18;;;;;;;2.67;2.47;;;21.30;99.90;;;;;;5003933;28;20463;-80
2022/10/04 11:57:07;;;;;;;2.73;2.13;;;21.00;99.90;;;;;;5015498;28;20541;-76
2022/10/04 11:59:47;;;;;;;3.77;2.83;;;20.60;99.90;;;;;;5024429;28;20797;-76
2022/10/04 12:02:45;;;;;;;3.90;2.17;;;20.60;99.90;;;;;;5017534;28;20458;-76
2022/10/04 12:05:52;;;;;;;4.93;2.13;;;20.80;99.90;;;;;;5013356;28;20545;-76
2022/10/04 12:08:27;;;;;;;3.10;2.47;;;20.90;99.90;;;;;;5015012;28;20461;-77
2022/10/04 12:11:23;;;;;;;2.63;2.27;;;21.10;99.90;;;;;;5019983;28;20491;-76
2022/10/04 12:14:09;;;;;;;2.13;1.93;;;21.30;99.90;;;;;;5022533;28;21248;-76
2022/10/04 12:17:21;;;;;;;2.47;2.20;;;21.00;99.90;;;;;;5023064;28;20455;-76
2022/10/04 12:20:18;;;;;;;3.43;2.37;;;20.50;99.90;;;;;;5025421;28;20447;-76
2022/10/04 12:23:02;;;;;;;2.77;2.37;;;20.60;99.90;;;;;;5019567;28;20459;-76
2022/10/04 12:25:57;;;;;;;2.70;2.50;;;20.60;99.90;;;;;;5026074;28;20460;-76
2022/10/04 12:28:51;;;;;;;2.57;2.37;;;20.70;99.90;;;;;;5031109;28;20911;-74
2022/10/04 12:31:23;;;;;;;5.50;2.80;;;20.70;99.90;;;;;;5025127;28;20489;-76
2022/10/04 12:33:58;;;;;;;2.90;2.60;;;20.70;99.90;;;;;;5018932;28;20950;-76
2022/10/04 12:36:49;;;;;;;2.63;2.30;;;20.50;99.90;;;;;;5018042;28;20453;-75
2022/10/04 12:39:38;;;;;;;3.30;2.40;;;20.80;99.90;;;;;;5017425;28;20488;-76
2022/10/04 12:42:19;;;;;;;3.07;2.30;;;21.20;99.90;;;;;;5018763;28;20465;-76
2022/10/04 12:45:24;;;;;;;2.80;2.50;;;21.40;99.90;;;;;;5017786;28;20480;-76
2022/10/04 12:48:21;;;;;;;2.90;2.47;;;21.50;99.90;;;;;;5017061;28;21222;-75
2022/10/04 12:51:05;;;;;;;3.17;2.70;;;21.80;99.90;;;;;;5009238;28;20480;-76
2022/10/04 12:53:46;;;;;;;2.13;1.97;;;22.00;99.90;;;;;;5021418;28;20468;-77
2022/10/04 12:56:29;;;;;;;3.63;2.60;;;22.00;99.90;;;;;;5015623;28;20483;-74
2022/10/04 12:59:13;;;;;;;4.10;1.70;;;21.40;99.90;;;;;;5017503;28;20453;-76
2022/10/04 13:01:51;;;;;;;3.50;2.00;;;21.60;99.90;;;;;;5018093;28;20935;-76
2022/10/04 13:04:29;;;;;;;3.07;2.07;;;21.70;99.90;;;;;;5020863;28;20486;-76
2022/10/04 13:07:32;;;;;;;2.40;1.80;;;21.80;99.90;;;;;;5012842;28;20789;-76
2022/10/04 13:10:23;;;;;;;2.50;2.17;;;22.10;99.90;;;;;;5015042;28;20540;-77
2022/10/04 13:13:23;;;;;;;2.40;2.20;;;22.50;99.90;;;;;;5013416;28;20474;-77
2022/10/04 13:15:57;;;;;;;2.90;2.20;;;22.70;99.90;;;;;;4989094;28;20847;-77
2022/10/04 13:18:33;;;;;;;3.40;2.20;;;22.90;99.90;;;;;;5020741;28;20564;-77
2022/10/04 13:21:03;;;;;;;3.30;2.20;;;22.90;99.90;;;;;;5008766;28;20526;-77
2022/10/04 13:23:54;;;;;;;3.50;1.90;;;23.10;99.90;;;;;;5008505;28;20465;-77
2022/10/04 13:26:34;;;;;;;2.67;1.97;;;23.20;99.40;;;;;;5015001;28;21027;-76
2022/10/04 13:29:09;;;;;;;1.80;1.70;;;23.40;98.60;;;;;;5013928;28;20491;-76
2022/10/04 13:31:42;;;;;;;2.87;2.37;;;23.40;98.70;;;;;;5013087;28;20490;-76
2022/10/04 13:34:19;;;;;;;2.70;2.23;;;23.40;97.70;;;;;;5016887;28;20485;-76
2022/10/04 13:37:05;;;;;;;5.63;2.10;;;23.10;98.30;;;;;;5015284;28;20475;-76
2022/10/04 13:39:51;;;;;;;1.70;1.60;;;23.20;97.50;;;;;;5012886;28;20482;-76
2022/10/04 13:42:35;;;;;;;2.67;2.00;;;23.20;97.20;;;;;;5014120;28;20460;-76
2022/10/04 13:45:30;;;;;;;2.23;2.00;;;23.30;97.20;;;;;;5013655;28;21017;-74
2022/10/04 13:48:16;;;;;;;2.47;2.03;;;23.20;96.50;;;;;;5013802;28;20461;-74
2022/10/04 13:50:58;;;;;;;2.10;1.90;;;23.00;97.00;;;;;;5011144;28;20488;-75
2022/10/04 13:56:44;;;;;;;2.83;2.10;;;23.10;97.30;;;;;;5009242;28;20466;-76
2022/10/04 13:59:25;;;;;;;2.83;1.97;;;23.30;97.50;;;;;;5015523;28;20451;-75